createdAt,value
2022-10-08T00:01:20.713Z,55.26
2022-10-08T00:03:51.367Z,55.52
2022-10-08T00:06:24.406Z,55.85
2022-10-08T00:08:54.289Z,55.60
2022-10-08T00:11:24.815Z,55.33
2022-10-08T00:13:53.898Z,55.03
2022-10-08T00:16:22.591Z,54.67
2022-10-08T00:18:51.927Z,54.70
2022-10-08T00:21:20.799Z,54.89
2022-10-08T00:23:49.240Z,54.99
2022-10-08T00:26:18.926Z,55.22
2022-10-08T00:28:47.433Z,54.80
2022-10-08T00:31:19.913Z,55.14
2022-10-08T00:33:55.585Z,55.10
2022-10-08T00:36:23.788Z,54.91
2022-10-08T00:38:56.438Z,55.03
2022-10-08T00:41:26.753Z,55.13
2022-10-08T00:44:00.185Z,55.43
2022-10-08T00:46:31.729Z,55.51
2022-10-08T00:49:19.101Z,55.29
2022-10-08T00:51:53.168Z,55.17
2022-10-08T00:54:21.983Z,55.21
2022-10-08T00:56:51.523Z,55.45
2022-10-08T00:59:20.462Z,55.35
2022-10-08T01:01:48.668Z,55.22
2022-10-08T01:04:16.278Z,55.43
2022-10-08T01:07:06.692Z,54.83
2022-10-08T01:09:49.148Z,54.68
2022-10-08T01:12:25.328Z,54.52
2022-10-08T01:15:01.449Z,54.64
2022-10-08T01:17:51.935Z,55.10
2022-10-08T01:20:41.432Z,54.83
2022-10-08T01:23:40.141Z,54.45
2022-10-08T01:26:35.757Z,54.45
2022-10-08T01:29:09.460Z,54.41
2022-10-08T01:31:57.519Z,54.09
2022-10-08T01:34:37.107Z,54.10
2022-10-08T01:37:06.599Z,53.95
2022-10-08T01:39:36.209Z,54.77
2022-10-08T01:42:05.358Z,54.73
2022-10-08T01:44:38.064Z,54.48
2022-10-08T01:47:09.328Z,54.47
2022-10-08T01:49:43.902Z,54.25
2022-10-08T01:52:16.318Z,53.85
2022-10-08T01:54:46.168Z,53.73
2022-10-08T01:57:13.897Z,54.05
2022-10-08T01:59:50.239Z,53.79
2022-10-08T02:02:21.465Z,53.83
2022-10-08T02:04:51.265Z,53.81
2022-10-08T02:07:21.281Z,54.07
2022-10-08T02:09:54.388Z,53.89
2022-10-08T02:12:24.993Z,54.56
2022-10-08T02:14:54.944Z,54.52
2022-10-08T02:17:25.349Z,54.58
2022-10-08T02:20:16.105Z,54.35
2022-10-08T02:22:52.543Z,54.43
2022-10-08T02:25:24.952Z,54.11
2022-10-08T02:27:56.553Z,54.12
2022-10-08T02:30:24.553Z,54.13
2022-10-08T02:32:59.192Z,54.48
2022-10-08T02:35:35.993Z,55.05
2022-10-08T02:38:10.544Z,54.80
2022-10-08T02:40:41.622Z,54.88
2022-10-08T02:43:12.851Z,54.58
2022-10-08T02:45:46.733Z,54.49
2022-10-08T02:48:19.382Z,54.32
2022-10-08T02:50:50.040Z,54.40
2022-10-08T02:53:19.450Z,54.31
2022-10-08T02:56:05.789Z,54.55
2022-10-08T02:58:33.779Z,54.66
2022-10-08T03:01:09.442Z,54.82
2022-10-08T03:03:39.874Z,54.44
2022-10-08T03:06:10.054Z,54.70
2022-10-08T03:08:41.737Z,54.93
2022-10-08T03:11:10.109Z,54.87
2022-10-08T03:13:39.627Z,55.03
2022-10-08T03:16:08.981Z,55.29
2022-10-08T03:18:38.323Z,55.53
2022-10-08T03:21:08.237Z,55.61
2022-10-08T03:23:35.966Z,55.74
2022-10-08T03:26:03.756Z,55.36
2022-10-08T03:28:31.289Z,54.84
2022-10-08T03:30:58.774Z,54.74
2022-10-08T03:33:26.557Z,54.50
2022-10-08T03:35:54.054Z,54.97
2022-10-08T03:38:21.477Z,54.99
2022-10-08T03:40:57.053Z,55.35
2022-10-08T03:43:24.486Z,55.04
2022-10-08T03:45:53.066Z,54.81
2022-10-08T03:48:21.906Z,54.65
2022-10-08T03:51:01.157Z,54.48
2022-10-08T03:53:31.161Z,54.84
2022-10-08T03:56:01.952Z,54.88
2022-10-08T03:58:30.235Z,55.27
2022-10-08T04:00:58.468Z,54.94
2022-10-08T04:03:26.958Z,55.31
2022-10-08T04:05:54.572Z,54.80
2022-10-08T04:08:22.016Z,54.23
2022-10-08T04:10:49.758Z,54.52
2022-10-08T04:13:17.907Z,54.29
2022-10-08T04:15:47.449Z,54.99
2022-10-08T04:18:15.189Z,54.81
2022-10-08T04:20:45.716Z,54.66
2022-10-08T04:23:13.211Z,54.86
2022-10-08T04:25:49.824Z,54.81
2022-10-08T04:28:17.297Z,54.32
2022-10-08T04:30:57.655Z,54.31
2022-10-08T04:33:25.675Z,54.44
2022-10-08T04:35:57.529Z,54.36
2022-10-08T04:38:28.470Z,54.79
2022-10-08T04:41:02.913Z,55.07
2022-10-08T04:43:30.364Z,55.02
2022-10-08T04:45:58.185Z,55.36
2022-10-08T04:48:25.669Z,54.99
2022-10-08T04:50:57.255Z,54.85
2022-10-08T04:53:28.002Z,54.78
2022-10-08T04:55:56.501Z,54.87
2022-10-08T04:58:25.614Z,54.96
2022-10-08T05:00:53.478Z,54.74
2022-10-08T05:03:20.908Z,54.88
2022-10-08T05:05:48.366Z,54.94
2022-10-08T05:08:16.267Z,55.09
2022-10-08T05:10:49.679Z,55.36
2022-10-08T05:13:17.427Z,55.06
2022-10-08T05:15:44.967Z,55.83
2022-10-08T05:18:12.426Z,56.20
2022-10-08T05:20:40.181Z,55.25
2022-10-08T05:23:07.593Z,54.76
2022-10-08T05:25:36.001Z,55.31
2022-10-08T05:28:04.239Z,55.66
2022-10-08T05:30:31.738Z,55.59
2022-10-08T05:32:59.241Z,55.87
2022-10-08T05:35:27.003Z,56.46
2022-10-08T05:37:54.479Z,56.04
2022-10-08T05:40:22.144Z,55.29
2022-10-08T05:42:50.234Z,55.10
2022-10-08T05:45:18.037Z,54.97
2022-10-08T05:47:48.292Z,55.17
2022-10-08T05:50:16.393Z,54.92
2022-10-08T05:52:44.137Z,55.22
2022-10-08T05:55:11.792Z,55.82
2022-10-08T05:57:39.549Z,55.88
2022-10-08T06:00:07.644Z,55.54
2022-10-08T06:02:38.770Z,54.90
2022-10-08T06:05:06.899Z,54.90
2022-10-08T06:07:34.367Z,54.96
2022-10-08T06:10:01.882Z,54.86
2022-10-08T06:12:29.716Z,55.24
2022-10-08T06:14:57.165Z,56.00
2022-10-08T06:17:24.654Z,56.06
2022-10-08T06:19:52.408Z,56.45
2022-10-08T06:22:19.818Z,56.98
2022-10-08T06:24:47.286Z,56.88
2022-10-08T06:27:15.047Z,58.94
2022-10-08T06:29:42.441Z,58.29
2022-10-08T06:32:09.904Z,59.65
2022-10-08T06:34:37.594Z,60.41
2022-10-08T06:37:05.107Z,59.92
2022-10-08T06:39:32.685Z,61.10
2022-10-08T06:42:00.402Z,60.04
2022-10-08T06:44:30.092Z,60.60
2022-10-08T06:46:57.587Z,61.29
2022-10-08T06:49:26.760Z,60.37
2022-10-08T06:51:54.284Z,60.66
2022-10-08T06:54:21.866Z,61.12
2022-10-08T06:56:49.594Z,61.25
2022-10-08T06:59:17.035Z,60.67
2022-10-08T07:01:45.354Z,61.46
2022-10-08T07:04:13.248Z,62.38
2022-10-08T07:06:40.743Z,62.22
2022-10-08T07:09:10.308Z,62.46
2022-10-08T07:11:38.417Z,62.89
2022-10-08T07:14:05.851Z,62.97
2022-10-08T07:16:33.432Z,61.57
2022-10-08T07:19:01.309Z,62.39
2022-10-08T07:21:29.473Z,62.61
2022-10-08T07:23:59.047Z,63.73
2022-10-08T07:26:28.675Z,62.18
2022-10-08T07:29:04.960Z,62.21
2022-10-08T07:31:35.392Z,61.88
2022-10-08T07:34:05.592Z,61.35
2022-10-08T07:36:33.820Z,60.29
2022-10-08T07:39:03.818Z,59.74
2022-10-08T07:41:31.945Z,61.34
2022-10-08T07:44:01.304Z,61.13
2022-10-08T07:46:33.958Z,60.96
2022-10-08T07:49:02.743Z,61.47
2022-10-08T07:51:31.684Z,61.77
2022-10-08T07:54:02.552Z,61.01
2022-10-08T07:56:31.589Z,62.11
2022-10-08T07:59:00.760Z,60.73
2022-10-08T08:01:30.207Z,60.89
2022-10-08T08:04:00.148Z,59.96
2022-10-08T08:06:28.466Z,60.25
2022-10-08T08:08:55.924Z,61.74
2022-10-08T08:11:24.733Z,60.29
2022-10-08T08:13:52.569Z,58.74
2022-10-08T08:16:22.882Z,61.35
2022-10-08T08:18:53.529Z,59.89
2022-10-08T08:21:23.349Z,58.70
2022-10-08T08:23:56.349Z,57.66
2022-10-08T08:26:29.137Z,57.49
2022-10-08T08:28:58.805Z,57.68
2022-10-08T08:31:31.455Z,57.37
2022-10-08T08:34:01.410Z,57.31
2022-10-08T08:36:35.177Z,56.55
2022-10-08T08:39:04.484Z,56.75
2022-10-08T08:41:47.034Z,56.76
2022-10-08T08:44:32.542Z,57.54
2022-10-08T08:47:04.392Z,55.95
2022-10-08T08:49:48.728Z,57.36
2022-10-08T08:52:18.314Z,55.83
2022-10-08T08:54:49.310Z,54.64
2022-10-08T08:57:40.761Z,55.75
2022-10-08T09:00:17.409Z,55.71
2022-10-08T09:03:04.742Z,54.69
2022-10-08T09:05:38.383Z,54.59
2022-10-08T09:08:26.111Z,53.79
2022-10-08T09:10:56.860Z,53.93
2022-10-08T09:13:30.795Z,54.97
2022-10-08T09:15:58.727Z,55.25
2022-10-08T09:18:26.238Z,54.84
2022-10-08T09:20:53.796Z,54.68
2022-10-08T09:23:23.869Z,54.83
2022-10-08T09:26:16.473Z,54.15
2022-10-08T09:28:46.132Z,51.67
2022-10-08T09:31:30.249Z,52.96
2022-10-08T09:34:05.677Z,53.77
2022-10-08T09:36:36.352Z,51.39
2022-10-08T09:39:06.573Z,51.96
2022-10-08T09:41:34.244Z,51.85
2022-10-08T09:44:21.973Z,51.63
2022-10-08T09:47:04.685Z,51.50
2022-10-08T09:49:38.405Z,50.26
2022-10-08T09:52:22.268Z,51.49
2022-10-08T09:54:56.997Z,50.47
2022-10-08T09:57:24.784Z,50.73
2022-10-08T10:00:00.896Z,50.19
2022-10-08T10:02:34.097Z,50.78
2022-10-08T10:05:05.027Z,51.19
2022-10-08T10:07:38.801Z,49.29
2022-10-08T10:10:14.808Z,48.67
2022-10-08T10:12:44.112Z,48.93
2022-10-08T10:15:15.716Z,49.37
2022-10-08T10:17:56.182Z,49.38
2022-10-08T10:20:28.090Z,49.60
2022-10-08T10:23:01.913Z,48.31
2022-10-08T10:25:41.941Z,47.05
2022-10-08T10:28:20.003Z,47.89
2022-10-08T10:31:05.676Z,46.67
2022-10-08T10:33:36.422Z,46.55
2022-10-08T10:36:07.683Z,47.23
2022-10-08T10:38:43.219Z,46.54
2022-10-08T10:41:29.134Z,47.16
2022-10-08T10:44:10.572Z,46.44
2022-10-08T10:46:51.738Z,44.94
2022-10-08T10:49:23.081Z,45.17
2022-10-08T10:52:18.868Z,44.63
2022-10-08T10:55:18.076Z,45.68
2022-10-08T10:58:13.808Z,44.14
2022-10-08T11:00:50.386Z,43.50
2022-10-08T11:03:35.064Z,43.51
2022-10-08T11:06:21.314Z,43.93
2022-10-08T11:09:18.473Z,43.31
2022-10-08T11:11:50.281Z,42.95
2022-10-08T11:14:53.654Z,41.81
2022-10-08T11:17:43.341Z,43.38
2022-10-08T11:20:52.828Z,43.63
2022-10-08T11:23:41.948Z,43.70
2022-10-08T11:26:25.510Z,42.05
2022-10-08T11:28:52.935Z,42.38
2022-10-08T11:31:39.501Z,42.66
2022-10-08T11:34:21.301Z,42.60
2022-10-08T11:37:32.423Z,42.03
2022-10-08T11:40:18.892Z,41.91
2022-10-08T11:42:53.289Z,41.69
2022-10-08T11:45:23.880Z,41.35
2022-10-08T11:47:54.482Z,41.78
2022-10-08T11:50:23.345Z,42.59
2022-10-08T11:52:51.133Z,42.12
2022-10-08T11:55:31.007Z,43.30
2022-10-08T11:58:09.396Z,42.64
2022-10-08T12:00:45.246Z,42.66
2022-10-08T12:03:30.286Z,42.62
2022-10-08T12:06:01.183Z,41.97
2022-10-08T12:08:58.320Z,42.07
2022-10-08T12:11:31.548Z,42.06
2022-10-08T12:14:11.235Z,42.04
2022-10-08T12:16:47.716Z,41.47
2022-10-08T12:19:34.087Z,41.52
2022-10-08T12:22:17.622Z,42.17
2022-10-08T12:24:50.347Z,41.22
2022-10-08T12:27:18.228Z,42.15
2022-10-08T12:30:14.199Z,42.17
2022-10-08T12:32:41.637Z,42.33
2022-10-08T12:35:34.843Z,43.50
2022-10-08T12:38:02.208Z,43.92
2022-10-08T12:40:48.514Z,43.59
2022-10-08T12:43:40.628Z,42.78
2022-10-08T12:46:37.554Z,42.56
2022-10-08T12:49:20.180Z,42.02
2022-10-08T12:51:56.042Z,41.75
2022-10-08T12:54:25.458Z,42.09
2022-10-08T12:56:53.462Z,42.58
2022-10-08T12:59:23.325Z,43.50
2022-10-08T13:01:53.746Z,43.34
2022-10-08T13:04:24.473Z,42.99
2022-10-08T13:06:54.133Z,41.71
2022-10-08T13:09:28.026Z,42.53
2022-10-08T13:12:02.167Z,43.05
2022-10-08T13:14:36.632Z,42.62
2022-10-08T13:17:05.438Z,42.58
2022-10-08T13:19:36.083Z,42.00
2022-10-08T13:22:07.415Z,42.50
2022-10-08T13:24:41.356Z,42.91
2022-10-08T13:27:28.356Z,43.22
2022-10-08T13:29:57.741Z,43.21
2022-10-08T13:32:35.245Z,42.37
2022-10-08T13:35:04.317Z,42.30
2022-10-08T13:37:34.947Z,42.59
2022-10-08T13:40:16.127Z,41.88
2022-10-08T13:42:46.539Z,42.10
2022-10-08T13:45:19.346Z,42.07
2022-10-08T13:47:47.258Z,42.15
2022-10-08T13:50:16.009Z,42.28
2022-10-08T13:55:36.255Z,42.70
2022-10-08T13:58:05.793Z,42.31
2022-10-08T14:00:36.005Z,42.42
2022-10-08T14:03:03.905Z,42.70
2022-10-08T14:05:35.215Z,43.15
2022-10-08T14:08:05.550Z,43.38
2022-10-08T14:10:33.415Z,42.83
2022-10-08T14:13:00.937Z,42.95
2022-10-08T14:15:29.097Z,42.62
2022-10-08T14:17:57.154Z,42.49
2022-10-08T14:20:24.630Z,42.87
2022-10-08T14:22:52.314Z,42.81
2022-10-08T14:25:21.966Z,43.67
2022-10-08T14:27:49.917Z,42.83
2022-10-08T14:30:18.114Z,42.73
2022-10-08T14:32:46.150Z,42.64
2022-10-08T14:35:14.243Z,42.54
2022-10-08T14:37:41.745Z,42.58
2022-10-08T14:40:13.928Z,42.88
2022-10-08T14:42:41.446Z,42.55
2022-10-08T14:45:09.533Z,43.13
2022-10-08T14:47:36.980Z,42.84
2022-10-08T14:50:05.093Z,43.39
2022-10-08T14:52:33.134Z,43.26
2022-10-08T14:55:00.822Z,43.08
2022-10-08T14:57:28.338Z,43.48
2022-10-08T14:59:56.090Z,43.02
2022-10-08T15:02:23.653Z,43.83
2022-10-08T15:04:51.136Z,44.31
2022-10-08T15:07:18.929Z,43.99
2022-10-08T15:12:13.711Z,43.27
2022-10-08T15:14:41.491Z,43.18
2022-10-08T15:17:09.064Z,43.30
2022-10-08T15:19:36.510Z,43.66
2022-10-08T15:22:04.375Z,43.57
2022-10-08T15:24:31.837Z,43.17
2022-10-08T15:26:59.337Z,42.80
2022-10-08T15:29:27.038Z,43.30
2022-10-08T15:31:54.695Z,43.86
2022-10-08T15:34:22.262Z,44.09
2022-10-08T15:36:50.102Z,43.93
2022-10-08T15:39:18.853Z,43.86
2022-10-08T15:41:49.051Z,44.46
2022-10-08T15:44:25.225Z,44.80
2022-10-08T15:47:07.327Z,45.03
2022-10-08T15:49:37.201Z,45.41
2022-10-08T15:52:07.606Z,45.53
2022-10-08T15:54:39.109Z,46.16
2022-10-08T15:57:07.442Z,46.93
2022-10-08T15:59:35.258Z,47.70
2022-10-08T16:02:04.237Z,47.42
2022-10-08T16:04:32.162Z,47.75
2022-10-08T16:06:59.581Z,48.66
2022-10-08T16:09:27.110Z,50.03
2022-10-08T16:11:54.977Z,50.37
2022-10-08T16:14:26.297Z,50.80
2022-10-08T16:16:54.396Z,51.05
2022-10-08T16:19:24.982Z,51.54
2022-10-08T16:21:54.590Z,51.68
2022-10-08T16:24:22.623Z,51.86
2022-10-08T16:26:50.184Z,51.98
2022-10-08T16:29:18.533Z,52.09
2022-10-08T16:31:47.600Z,51.88
2022-10-08T16:34:24.966Z,52.82
2022-10-08T16:36:52.801Z,53.20
2022-10-08T16:39:21.868Z,53.16
2022-10-08T16:41:49.918Z,52.74
2022-10-08T16:44:19.542Z,53.10
2022-10-08T16:46:50.486Z,53.74
2022-10-08T16:49:29.640Z,53.58
2022-10-08T16:51:59.802Z,53.55
2022-10-08T16:54:28.017Z,53.43
2022-10-08T16:56:55.665Z,53.33
2022-10-08T16:59:25.547Z,53.09
2022-10-08T17:01:55.461Z,53.62
2022-10-08T17:04:24.917Z,53.86
2022-10-08T17:06:52.965Z,53.80
2022-10-08T17:09:20.861Z,54.22
2022-10-08T17:11:48.673Z,54.48
2022-10-08T17:14:16.416Z,54.89
2022-10-08T17:16:45.072Z,54.75
2022-10-08T17:19:12.729Z,54.92
2022-10-08T17:21:41.029Z,54.75
2022-10-08T17:24:10.964Z,54.93
2022-10-08T17:26:38.598Z,55.24
2022-10-08T17:29:08.751Z,55.57
2022-10-08T17:31:36.954Z,56.10
2022-10-08T17:34:05.185Z,56.17
2022-10-08T17:36:38.244Z,56.88
2022-10-08T17:39:07.982Z,56.98
2022-10-08T17:41:37.773Z,57.30
2022-10-08T17:44:07.392Z,57.90
2022-10-08T17:46:45.522Z,57.11
2022-10-08T17:49:15.424Z,57.05
2022-10-08T17:51:43.108Z,57.01
2022-10-08T17:54:13.371Z,56.63
2022-10-08T17:56:41.593Z,56.43
2022-10-08T17:59:09.193Z,55.97
2022-10-08T18:01:40.241Z,56.02
2022-10-08T18:04:13.930Z,55.58
2022-10-08T18:06:42.831Z,55.76
2022-10-08T18:09:12.922Z,56.44
2022-10-08T18:11:43.539Z,55.80
2022-10-08T18:14:11.405Z,55.33
2022-10-08T18:16:39.089Z,55.87
2022-10-08T18:19:08.926Z,55.85
2022-10-08T18:21:36.877Z,56.19
2022-10-08T18:24:04.875Z,55.64
2022-10-08T18:26:35.666Z,56.26
2022-10-08T18:29:05.962Z,55.99
2022-10-08T18:31:33.987Z,56.87
2022-10-08T18:34:04.368Z,56.55
2022-10-08T18:36:34.229Z,56.36
2022-10-08T18:39:04.835Z,56.81
2022-10-08T18:41:36.139Z,57.08
2022-10-08T18:44:07.673Z,56.31
2022-10-08T18:46:36.357Z,56.14
2022-10-08T18:49:05.791Z,55.71
2022-10-08T18:51:34.113Z,56.05
2022-10-08T18:54:02.299Z,56.44
2022-10-08T18:56:34.466Z,56.36
2022-10-08T18:59:05.568Z,56.35
2022-10-08T19:01:38.906Z,55.91
2022-10-08T19:04:08.417Z,55.89
2022-10-08T19:06:38.298Z,55.87
2022-10-08T19:09:06.522Z,56.05
2022-10-08T19:11:45.042Z,56.06
2022-10-08T19:14:15.504Z,56.82
2022-10-08T19:16:43.420Z,56.56
2022-10-08T19:19:21.705Z,57.19
2022-10-08T19:21:50.266Z,57.05
2022-10-08T19:24:19.933Z,57.01
2022-10-08T19:26:48.086Z,57.16
2022-10-08T19:29:18.349Z,57.01
2022-10-08T19:31:50.330Z,57.02
2022-10-08T19:34:21.193Z,56.84
2022-10-08T19:36:49.456Z,56.70
2022-10-08T19:39:22.304Z,56.47
2022-10-08T19:41:50.298Z,56.34
2022-10-08T19:44:18.613Z,55.96
2022-10-08T19:46:46.716Z,56.00
2022-10-08T19:49:15.085Z,56.53
2022-10-08T19:51:43.164Z,56.10
2022-10-08T19:54:11.131Z,56.37
2022-10-08T19:56:38.936Z,56.82
2022-10-08T19:59:06.903Z,58.36
2022-10-08T20:01:39.256Z,58.74
2022-10-08T20:04:08.554Z,57.95
2022-10-08T20:06:40.890Z,58.47
2022-10-08T20:09:12.194Z,58.78
2022-10-08T20:11:41.087Z,58.75
2022-10-08T20:14:09.235Z,58.38
2022-10-08T20:16:39.528Z,58.74
2022-10-08T20:19:16.680Z,60.01
2022-10-08T20:21:45.067Z,59.15
2022-10-08T20:24:12.804Z,59.33
2022-10-08T20:26:41.480Z,58.72
2022-10-08T20:29:11.773Z,58.12
2022-10-08T20:31:44.977Z,57.76
2022-10-08T20:34:18.178Z,57.52
2022-10-08T20:36:47.038Z,56.85
2022-10-08T20:39:16.423Z,56.73
2022-10-08T20:41:44.627Z,57.70
2022-10-08T20:44:12.086Z,57.69
2022-10-08T20:46:39.999Z,58.13
2022-10-08T20:49:07.769Z,59.08
2022-10-08T20:51:35.412Z,58.83
2022-10-08T20:54:05.495Z,59.07
2022-10-08T20:56:39.232Z,58.55
2022-10-08T20:59:09.082Z,58.18
2022-10-08T21:01:38.582Z,58.36
2022-10-08T21:04:07.139Z,58.55
2022-10-08T21:06:38.280Z,58.47
2022-10-08T21:09:06.434Z,58.20
2022-10-08T21:11:34.801Z,58.31
2022-10-08T21:14:03.653Z,58.03
2022-10-08T21:16:33.975Z,57.79
2022-10-08T21:19:03.781Z,58.05
2022-10-08T21:21:32.706Z,58.31
2022-10-08T21:24:00.559Z,58.49
2022-10-08T21:26:34.127Z,58.64
2022-10-08T21:29:02.826Z,58.52
2022-10-08T21:31:31.977Z,58.32
2022-10-08T21:33:59.690Z,58.19
2022-10-08T21:36:29.488Z,57.73
2022-10-08T21:38:58.522Z,57.53
2022-10-08T21:41:29.147Z,57.83
2022-10-08T21:43:58.450Z,58.18
2022-10-08T21:46:28.717Z,58.52
2022-10-08T21:49:01.294Z,59.53
2022-10-08T21:51:30.026Z,60.39
2022-10-08T21:53:59.185Z,59.84
2022-10-08T21:56:29.191Z,59.24
2022-10-08T21:58:59.175Z,58.51
2022-10-08T22:01:30.937Z,58.56
2022-10-08T22:04:01.249Z,58.15
2022-10-08T22:06:31.153Z,58.15
2022-10-08T22:08:59.203Z,57.73
2022-10-08T22:11:27.211Z,57.58
2022-10-08T22:13:54.671Z,58.06
2022-10-08T22:16:23.050Z,58.34
2022-10-08T22:18:50.691Z,58.05
2022-10-08T22:21:21.243Z,57.99
2022-10-08T22:23:50.152Z,58.08
2022-10-08T22:26:19.125Z,58.34
2022-10-08T22:28:47.551Z,58.20
2022-10-08T22:31:16.908Z,58.86
2022-10-08T22:33:44.556Z,58.30
2022-10-08T22:36:18.232Z,58.92
2022-10-08T22:38:46.489Z,58.60
2022-10-08T22:41:16.771Z,58.87
2022-10-08T22:43:44.874Z,58.90
2022-10-08T22:46:21.156Z,58.61
2022-10-08T22:48:49.095Z,58.38
2022-10-08T22:51:20.184Z,58.25
2022-10-08T22:53:48.527Z,58.04
2022-10-08T22:56:21.911Z,58.28
2022-10-08T22:58:50.322Z,58.52
2022-10-08T23:01:20.005Z,58.25
2022-10-08T23:03:51.054Z,58.08
2022-10-08T23:06:22.915Z,57.77
2022-10-08T23:09:07.589Z,57.51
2022-10-08T23:11:35.529Z,57.27
2022-10-08T23:14:03.545Z,57.06
2022-10-08T23:16:32.862Z,57.05
2022-10-08T23:19:02.876Z,57.09
2022-10-08T23:21:30.492Z,56.96
2022-10-08T23:23:58.569Z,57.00
2022-10-08T23:26:26.935Z,56.82
2022-10-08T23:28:57.096Z,56.96
2022-10-08T23:31:29.658Z,57.81
2022-10-08T23:33:58.008Z,58.24
2022-10-08T23:36:38.660Z,57.73
2022-10-08T23:39:08.339Z,57.36
2022-10-08T23:41:37.022Z,57.38
2022-10-08T23:44:04.521Z,57.00
2022-10-08T23:46:32.952Z,56.73
2022-10-08T23:49:00.568Z,56.59
2022-10-08T23:51:29.147Z,56.54
2022-10-08T23:53:56.904Z,56.42
2022-10-08T23:56:24.380Z,56.65
2022-10-08T23:58:51.873Z,56.89
